Time;durP1;ratioP1;P1;durP2;ratioP2;P2;SDS_P1;SDS_P2;PMS_P1;PMS_P2;Temp;Humidity;BMP_temperature;BMP_pressure;BME280_temperature;BME280_humidity;BME280_pressure;Samples;Min_cycle;Max_cycle;Signal;HPM_P1;HPM_P2
2022/04/21 00:00:45;;;;;;;3.85;2.75;;;;;;;5.75;67.95;99720.34;3146447;28;20044;-73
2022/04/21 00:02:17;;;;;;;7.90;3.17;;;;;;;5.71;67.96;99722.19;3148883;28;20067;-73
2022/04/21 00:03:49;;;;;;;3.92;2.95;;;;;;;5.67;68.14;99718.81;3146399;28;20048;-73
2022/04/21 00:05:20;;;;;;;3.22;2.35;;;;;;;5.64;68.08;99729.22;3146591;28;20102;-74
2022/04/21 00:06:51;;;;;;;5.10;2.97;;;;;;;5.61;68.36;99731.03;3144505;28;20143;-73
2022/04/21 00:08:23;;;;;;;5.65;3.38;;;;;;;5.62;68.40;99733.59;3146011;28;20379;-73
2022/04/21 00:09:54;;;;;;;4.30;2.90;;;;;;;5.59;68.45;99735.38;3145302;28;20045;-74
2022/04/21 00:11:26;;;;;;;3.42;2.60;;;;;;;5.56;68.48;99738.94;3146230;28;20052;-73
2022/04/21 00:12:57;;;;;;;4.40;2.83;;;;;;;5.53;68.56;99732.97;3146619;28;20048;-74
2022/04/21 00:14:31;;;;;;;5.00;2.85;;;;;;;5.43;68.57;99720.28;3139852;28;20064;-73
2022/04/21 00:16:03;;;;;;;3.80;2.78;;;;;;;5.53;68.56;99736.44;3146141;28;20110;-73
2022/04/21 00:17:35;;;;;;;4.65;2.85;;;;;;;5.50;68.72;99736.47;3140817;28;20125;-73
2022/04/21 00:19:07;;;;;;;5.57;2.95;;;;;;;5.43;68.77;99729.78;3145195;28;20048;-73
2022/04/21 00:20:39;;;;;;;4.10;2.80;;;;;;;5.47;68.63;99739.13;3134873;28;20061;-73
2022/04/21 00:23:59;;;;;;;4.07;3.20;;;;;;;5.42;68.90;99735.84;3130082;28;20521;-74
2022/04/21 00:25:31;;;;;;;4.03;2.70;;;;;;;5.42;68.93;99738.44;3132853;28;20064;-74
2022/04/21 00:27:02;;;;;;;5.25;2.75;;;;;;;5.39;68.94;99730.75;3130858;28;20061;-74
2022/04/21 00:28:34;;;;;;;6.03;3.10;;;;;;;5.39;68.98;99736.75;3139321;28;20044;-73
2022/04/21 00:30:08;;;;;;;3.97;2.83;;;;;;;5.38;68.89;99734.22;3140802;28;20064;-73
2022/04/21 00:31:40;;;;;;;4.13;3.10;;;;;;;5.38;68.96;99744.53;3127729;28;20076;-73
2022/04/21 00:33:12;;;;;;;4.35;2.85;;;;;;;5.33;68.89;99733.50;3129668;28;20057;-73
2022/04/21 00:34:43;;;;;;;4.75;3.20;;;;;;;5.35;68.83;99736.88;3137638;28;20117;-74
2022/04/21 00:36:15;;;;;;;4.03;2.97;;;;;;;5.35;68.96;99744.63;3133904;28;20319;-73
2022/04/21 00:37:47;;;;;;;4.55;2.72;;;;;;;5.36;68.96;99738.59;3132390;28;20049;-74
2022/04/21 00:39:19;;;;;;;5.00;3.50;;;;;;;5.38;68.94;99749.69;3128162;28;20056;-73
2022/04/21 00:40:51;;;;;;;4.85;2.85;;;;;;;5.37;68.83;99748.84;3133575;28;20117;-73
2022/04/21 00:42:22;;;;;;;4.07;2.70;;;;;;;5.37;68.71;99754.03;3138623;28;20578;-73
2022/04/21 00:43:54;;;;;;;4.20;2.40;;;;;;;5.37;68.59;99751.44;3142348;28;20501;-73
2022/04/21 00:45:29;;;;;;;4.53;2.80;;;;;;;5.37;68.55;99750.59;3133485;28;20057;-73
2022/04/21 00:47:03;;;;;;;5.03;2.80;;;;;;;5.42;68.38;99756.50;3133412;28;20056;-73
2022/04/21 00:48:35;;;;;;;4.10;2.83;;;;;;;5.44;68.34;99752.13;3133855;28;20118;-73
2022/04/21 00:50:09;;;;;;;4.50;2.83;;;;;;;5.45;68.10;99754.69;3134418;28;20095;-74
2022/04/21 00:51:41;;;;;;;3.70;2.60;;;;;;;5.48;68.04;99761.50;3134002;28;20061;-74
2022/04/21 00:53:13;;;;;;;4.50;2.75;;;;;;;5.46;67.90;99755.53;3127908;28;20049;-73
2022/04/21 00:54:45;;;;;;;3.97;2.70;;;;;;;5.50;67.68;99767.47;3131019;28;20048;-73
2022/04/21 00:56:17;;;;;;;4.03;2.83;;;;;;;5.48;67.80;99753.78;3133647;28;20099;-74
2022/04/21 00:57:51;;;;;;;4.50;2.70;;;;;;;5.52;67.59;99763.13;3136174;28;20056;-73
2022/04/21 00:59:24;;;;;;;3.75;2.70;;;;;;;5.51;67.56;99764.03;3135800;28;20051;-73
2022/04/21 01:00:58;;;;;;;4.20;2.80;;;;;;;5.53;67.53;99767.41;3133449;28;20057;-74
2022/04/21 01:02:47;;;;;;;4.32;2.70;;;;;;;5.53;67.57;99758.81;3133244;28;20052;-72
2022/04/21 01:04:19;;;;;;;4.53;2.90;;;;;;;5.50;67.54;99751.97;3136119;28;20044;-72
2022/04/21 01:05:51;;;;;;;4.63;2.90;;;;;;;5.47;67.40;99752.06;3137806;28;20053;-73
2022/04/21 01:07:23;;;;;;;4.10;2.63;;;;;;;5.55;67.40;99764.78;3133660;28;20098;-73
2022/04/21 01:08:54;;;;;;;3.80;2.67;;;;;;;5.53;67.41;99767.41;3132806;28;20442;-74
2022/04/21 01:10:28;;;;;;;4.68;2.72;;;;;;;5.54;67.32;99770.84;3133639;28;20053;-72
2022/04/21 01:11:59;;;;;;;4.85;3.08;;;;;;;5.55;67.34;99768.22;3132625;28;20049;-71
2022/04/21 01:13:31;;;;;;;4.97;2.70;;;;;;;5.54;67.42;99761.34;3133415;28;20059;-72
2022/04/21 01:15:03;;;;;;;4.40;3.03;;;;;;;5.53;67.41;99757.09;3133160;28;20049;-72
2022/04/21 01:16:36;;;;;;;7.15;3.15;;;;;;;5.59;67.43;99762.09;3133072;28;20059;-74
2022/04/21 01:18:08;;;;;;;6.18;3.08;;;;;;;5.55;67.34;99760.47;3133266;28;20107;-73
2022/04/21 01:19:39;;;;;;;4.50;2.90;;;;;;;5.56;67.40;99763.88;3132881;28;20426;-72
2022/04/21 01:21:12;;;;;;;4.30;2.88;;;;;;;5.58;67.40;99773.31;3132337;28;20303;-73
2022/04/21 01:22:43;;;;;;;6.50;3.13;;;;;;;5.47;67.50;99757.22;3132842;28;20053;-74
2022/04/21 01:24:15;;;;;;;4.93;3.95;;;;;;;5.57;67.51;99773.34;3132655;28;20126;-73
2022/04/21 01:25:49;;;;;;;6.55;3.78;;;;;;;5.59;67.57;99772.44;3129574;28;20100;-72
2022/04/21 01:27:22;;;;;;;5.88;3.90;;;;;;;5.54;67.49;99769.09;3131254;28;20506;-73
2022/04/21 01:28:55;;;;;;;5.25;3.88;;;;;;;5.62;67.54;99774.06;3128480;28;20447;-73
2022/04/21 01:30:27;;;;;;;5.57;3.70;;;;;;;5.64;67.46;99786.06;3129642;28;20588;-72
2022/04/21 01:31:58;;;;;;;6.32;4.03;;;;;;;5.57;67.43;99768.19;3132391;28;20505;-72
2022/04/21 01:33:30;;;;;;;5.60;3.85;;;;;;;5.56;67.40;99767.34;3132383;28;20068;-72
2022/04/21 01:35:03;;;;;;;5.85;3.95;;;;;;;5.62;67.49;99772.34;3132884;28;20414;-72
2022/04/21 01:41:08;;;;;;;5.05;3.75;;;;;;;5.61;67.40;99768.06;3128154;28;20052;-73
2022/04/21 01:42:08;;;;;;;7.00;3.97;;;;;;;5.60;67.71;99747.44;3132132;28;20053;-73
2022/04/21 01:43:43;;;;;;;5.75;4.05;;;;;;;5.66;67.46;99763.63;3130936;28;20134;-72
2022/04/21 01:45:14;;;;;;;5.25;3.72;;;;;;;5.65;67.51;99756.78;3132599;28;20551;-74
2022/04/21 01:46:46;;;;;;;6.15;3.92;;;;;;;5.65;67.53;99756.78;3131843;28;20072;-73
2022/04/21 01:48:17;;;;;;;8.63;4.03;;;;;;;5.62;67.58;99753.41;3132178;28;20048;-72
2022/04/21 01:49:48;;;;;;;7.72;4.28;;;;;;;5.56;67.78;99759.59;3131522;28;20079;-73
2022/04/21 01:51:20;;;;;;;5.32;3.60;;;;;;;5.49;67.79;99758.03;3132804;28;20049;-73
2022/04/21 01:52:54;;;;;;;5.35;3.78;;;;;;;5.38;68.08;99748.00;3132133;28;20049;-73
2022/04/21 01:54:25;;;;;;;;;;;;;;;5.35;68.25;99754.94;3133212;28;20495;-73
2022/04/21 01:55:57;;;;;;;5.55;3.60;;;;;;;5.31;68.39;99766.25;3130365;28;19951;-73
2022/04/21 01:57:28;;;;;;;9.82;4.40;;;;;;;5.23;68.63;99763.84;3128578;28;20053;-72
2022/04/21 01:59:00;;;;;;;6.55;4.15;;;;;;;5.21;68.70;99756.13;3122984;28;20190;-74
2022/04/21 02:00:32;;;;;;;7.82;3.85;;;;;;;5.12;68.86;99756.34;3128040;28;20042;-72
2022/04/21 02:02:04;;;;;;;5.47;4.13;;;;;;;5.12;68.80;99756.34;3120860;28;20053;-74
2022/04/21 02:03:36;;;;;;;5.32;4.10;;;;;;;5.18;68.70;99760.53;3125023;28;20048;-74
2022/04/21 02:05:07;;;;;;;7.07;4.55;;;;;;;5.17;68.83;99764.81;3132574;28;20048;-74
2022/04/21 02:06:40;;;;;;;6.07;4.47;;;;;;;5.14;68.76;99757.16;3132154;28;20117;-74
2022/04/21 02:08:13;;;;;;;;;;;;;;;5.11;68.79;99759.81;3133058;28;20529;-72
2022/04/21 02:09:44;;;;;;;6.22;3.95;;;;;;;5.07;68.97;99758.19;3130748;28;19921;-72
2022/04/21 02:11:16;;;;;;;7.70;4.40;;;;;;;4.93;69.04;99743.00;3132858;28;20059;-73
2022/04/21 02:12:48;;;;;;;8.75;4.10;;;;;;;4.99;69.22;99757.50;3129390;28;20144;-74
2022/04/21 02:14:20;;;;;;;14.32;4.75;;;;;;;5.00;69.13;99757.50;3132591;28;20049;-72
2022/04/21 02:15:52;;;;;;;7.22;4.32;;;;;;;5.04;69.30;99758.25;3128561;28;20049;-72
2022/04/21 02:17:25;;;;;;;9.40;4.78;;;;;;;5.02;69.29;99752.28;3120343;28;20087;-72
2022/04/21 02:18:57;;;;;;;6.32;3.92;;;;;;;5.00;69.20;99757.50;3121920;28;20045;-72
2022/04/21 02:20:29;;;;;;;11.00;4.78;;;;;;;4.98;69.49;99750.66;3132142;28;20105;-73
2022/04/21 02:22:00;;;;;;;5.05;3.55;;;;;;;5.00;69.49;99754.06;3130168;28;20075;-73
2022/04/21 02:23:33;;;;;;;7.22;4.32;;;;;;;5.00;69.53;99756.66;3132534;28;20045;-72
2022/04/21 02:25:06;;;;;;;5.55;3.65;;;;;;;4.99;69.52;99750.63;3132603;28;20053;-72
2022/04/21 02:26:37;;;;;;;6.82;4.03;;;;;;;5.02;69.46;99757.44;3132546;28;20070;-72
2022/04/21 02:28:09;;;;;;;7.53;4.43;;;;;;;5.02;69.58;99760.03;3132649;28;20149;-72
2022/04/21 02:29:40;;;;;;;5.65;3.88;;;;;;;5.04;69.58;99752.25;3131214;28;20053;-74
2022/04/21 02:31:12;;;;;;;7.93;4.20;;;;;;;5.01;69.63;99751.44;3131648;28;20131;-73
2022/04/21 02:32:44;;;;;;;6.50;3.63;;;;;;;5.03;69.55;99751.41;3131369;28;20099;-73
2022/04/21 02:34:16;;;;;;;6.45;3.72;;;;;;;5.08;69.49;99757.31;3132291;28;20106;-72
2022/04/21 02:35:48;;;;;;;7.82;4.85;;;;;;;5.09;69.68;99755.56;3123198;28;20053;-72
2022/04/21 02:37:20;;;;;;;6.72;4.15;;;;;;;5.07;69.41;99754.78;3132004;28;20109;-72
2022/04/21 02:38:53;;;;;;;7.18;4.15;;;;;;;5.00;69.41;99738.59;3129817;28;20053;-73
2022/04/21 02:40:25;;;;;;;6.78;4.03;;;;;;;5.09;69.40;99751.28;3130273;28;20118;-73
2022/04/21 02:41:56;;;;;;;6.72;4.03;;;;;;;5.07;69.39;99747.88;3132011;28;20114;-73
2022/04/21 02:43:28;;;;;;;7.22;4.07;;;;;;;5.09;69.49;99751.28;3132361;28;20049;-72
2022/04/21 02:45:00;;;;;;;7.10;4.05;;;;;;;5.06;69.45;99751.34;3132514;28;20045;-73
2022/04/21 02:46:35;;;;;;;5.50;3.92;;;;;;;5.05;69.59;99753.94;3128500;28;20057;-73
2022/04/21 02:48:07;;;;;;;5.88;3.50;;;;;;;5.04;69.66;99744.53;3126152;28;20089;-73
2022/04/21 02:49:40;;;;;;;8.80;4.65;;;;;;;5.02;69.66;99752.28;3128922;28;20055;-73
2022/04/21 02:51:12;;;;;;;;;;;;;;;5.00;69.70;99748.91;3133128;28;20045;-73
2022/04/21 02:52:45;;;;;;;5.80;3.30;;;;;;;4.96;69.65;99744.69;3132312;28;19921;-73
2022/04/21 02:57:57;;;;;;;5.13;3.72;;;;;;;4.74;70.48;99744.34;3132858;28;20052;-72
2022/04/21 02:59:29;;;;;;;6.25;3.85;;;;;;;4.72;70.66;99741.78;3130724;28;20053;-73
2022/04/21 03:01:00;;;;;;;7.63;3.92;;;;;;;4.67;70.87;99735.84;3132161;28;20049;-73
2022/04/21 03:02:32;;;;;;;5.30;4.00;;;;;;;4.64;71.08;99742.81;3134008;28;20064;-73
2022/04/21 03:04:04;;;;;;;5.78;3.97;;;;;;;4.55;71.40;99731.84;3134968;28;20053;-73
2022/04/21 03:05:36;;;;;;;6.65;4.18;;;;;;;4.53;71.61;99738.75;3134544;28;20509;-73
2022/04/21 03:07:06;;;;;;;5.03;3.55;;;;;;;4.47;71.84;99735.47;3134855;28;20052;-72
2022/04/21 03:08:38;;;;;;;5.93;4.18;;;;;;;4.48;71.81;99732.84;3134911;28;20045;-72
2022/04/21 03:10:12;;;;;;;7.50;4.07;;;;;;;4.47;71.78;99736.31;3129773;28;20134;-73
2022/04/21 03:11:44;;;;;;;5.10;3.85;;;;;;;4.46;71.85;99742.34;3132335;28;20110;-72
2022/04/21 03:13:15;;;;;;;6.45;4.25;;;;;;;4.46;71.79;99739.75;3134824;28;20049;-73
2022/04/21 03:14:49;;;;;;;6.38;4.22;;;;;;;4.47;71.77;99741.47;3134719;28;20098;-72
2022/04/21 03:16:21;;;;;;;6.88;3.90;;;;;;;4.50;71.70;99746.56;3131096;28;20058;-73
2022/04/21 03:17:52;;;;;;;6.57;4.78;;;;;;;4.49;71.60;99749.16;3134756;28;20052;-73
2022/04/21 03:19:23;;;;;;;6.93;4.78;;;;;;;4.51;71.70;99742.25;3133560;28;20049;-73
2022/04/21 03:24:49;;;;;;;7.20;4.80;;;;;;;4.45;72.11;99766.44;3093311;28;20042;-72
2022/04/21 03:26:22;;;;;;;7.47;4.63;;;;;;;4.45;72.11;99761.28;3093665;28;20820;-72
2022/04/21 03:27:54;;;;;;;7.55;4.35;;;;;;;4.44;72.07;99758.75;3089902;28;20055;-72
2022/04/21 03:29:26;;;;;;;9.10;5.80;;;;;;;4.42;72.17;99753.59;3134532;28;20067;-74
2022/04/21 03:30:58;;;;;;;13.32;8.00;;;;;;;4.47;72.11;99761.25;3134714;28;20045;-73
2022/04/21 03:32:29;;;;;;;17.60;11.38;;;;;;;4.47;72.32;99763.84;3141188;28;20110;-73
2022/04/21 03:34:02;;;;;;;10.18;6.82;;;;;;;4.44;72.44;99761.31;3134545;28;20052;-73
2022/04/21 03:35:35;;;;;;;6.63;4.80;;;;;;;4.40;72.62;99762.25;3134793;28;20064;-73
2022/04/21 03:37:08;;;;;;;7.82;4.93;;;;;;;4.36;72.75;99763.19;3134536;28;20048;-74
2022/04/21 03:38:39;;;;;;;7.82;5.13;;;;;;;4.34;72.84;99760.63;3134453;28;20049;-73
2022/04/21 03:40:12;;;;;;;10.85;5.22;;;;;;;4.36;72.75;99768.34;3134326;28;20447;-74
2022/04/21 03:41:45;;;;;;;8.60;5.40;;;;;;;4.36;72.70;99769.19;3134403;28;20052;-73
2022/04/21 03:43:17;;;;;;;8.10;5.97;;;;;;;4.34;72.79;99766.63;3134543;28;20059;-74
2022/04/21 03:44:49;;;;;;;7.75;5.20;;;;;;;4.40;72.83;99777.72;3134584;28;20135;-74
2022/04/21 03:46:20;;;;;;;9.38;5.43;;;;;;;4.22;72.97;99751.44;3134446;28;20053;-74
2022/04/21 03:47:52;;;;;;;8.98;5.20;;;;;;;4.40;72.88;99780.28;3135208;28;20057;-74
2022/04/21 03:49:25;;;;;;;10.32;5.57;;;;;;;4.39;72.79;99774.28;3134300;28;20049;-73
2022/04/21 03:50:57;;;;;;;9.10;6.00;;;;;;;4.44;72.84;99781.94;3134337;28;20053;-74
2022/04/21 03:52:29;;;;;;;11.73;6.45;;;;;;;4.40;72.88;99770.81;3126171;28;20084;-74
2022/04/21 03:54:01;;;;;;;9.52;5.75;;;;;;;4.40;73.03;99768.25;3134512;28;20061;-74
2022/04/21 03:55:33;;;;;;;10.52;6.53;;;;;;;4.38;73.01;99766.56;3128517;28;20547;-74
2022/04/21 03:57:07;;;;;;;12.38;6.65;;;;;;;4.43;73.03;99772.50;3129182;28;20063;-73
2022/04/21 03:58:38;;;;;;;8.65;5.75;;;;;;;4.43;73.09;99769.91;3125351;28;20049;-74
2022/04/21 04:00:11;;;;;;;10.23;6.45;;;;;;;4.42;73.14;99770.81;3135706;28;20052;-74
2022/04/21 04:01:43;;;;;;;11.82;7.05;;;;;;;4.44;73.01;99769.06;3131177;28;20139;-74
2022/04/21 04:03:15;;;;;;;9.13;6.68;;;;;;;4.45;73.10;99773.31;3130505;28;20053;-74
2022/04/21 04:04:47;;;;;;;10.43;6.88;;;;;;;4.47;73.12;99766.41;3134301;28;20095;-74
2022/04/21 04:11:46;;;;;;;12.57;7.15;;;;;;;4.46;73.35;99772.44;3133860;28;20061;-74
2022/04/21 04:13:19;;;;;;;11.68;6.80;;;;;;;4.47;73.52;99769.84;3133985;28;20056;-74
2022/04/21 04:14:52;;;;;;;;;;;;;;;4.49;73.56;99777.53;3134688;28;20056;-74
2022/04/21 04:16:24;;;;;;;11.48;6.15;;;;;;;4.47;73.55;99774.16;3134079;28;20341;-74
2022/04/21 04:17:56;;;;;;;13.50;6.53;;;;;;;4.29;73.89;99740.13;3134271;28;20110;-74
2022/04/21 04:19:27;;;;;;;14.50;6.72;;;;;;;4.45;74.00;99765.59;3134059;28;20050;-74
2022/04/21 04:20:58;;;;;;;12.13;7.30;;;;;;;4.56;73.86;99781.69;3123768;28;20049;-74
2022/04/21 04:22:30;;;;;;;9.82;6.03;;;;;;;4.56;73.85;99771.38;3120326;28;20045;-74
2022/04/21 04:24:01;;;;;;;11.45;6.88;;;;;;;4.63;73.64;99778.09;3127542;28;20095;-74
2022/04/21 04:25:33;;;;;;;15.63;8.77;;;;;;;4.64;73.77;99774.63;3127330;28;20049;-73
2022/04/21 04:27:05;;;;;;;14.32;8.80;;;;;;;4.72;73.54;99777.88;3133728;28;20049;-73
2022/04/21 04:28:38;;;;;;;14.07;8.75;;;;;;;4.75;73.36;99779.56;3130022;28;20045;-74
2022/04/21 04:30:10;;;;;;;12.55;7.70;;;;;;;4.76;73.30;99768.34;3132662;28;20044;-73
2022/04/21 04:31:42;;;;;;;12.23;8.13;;;;;;;4.79;73.45;99770.84;3128662;28;20056;-73
2022/04/21 04:33:15;;;;;;;15.75;8.50;;;;;;;4.81;73.52;99774.25;3131854;28;20091;-74
2022/04/21 04:34:47;;;;;;;14.23;8.43;;;;;;;4.82;73.44;99775.09;3124188;28;20050;-73
2022/04/21 04:36:19;;;;;;;14.90;8.23;;;;;;;4.84;73.54;99769.03;3123262;28;20119;-73
2022/04/21 04:37:51;;;;;;;14.20;7.18;;;;;;;4.86;73.39;99767.28;3128382;28;20419;-74
2022/04/21 04:39:23;;;;;;;12.83;7.30;;;;;;;4.89;73.34;99766.38;3125182;28;20510;-73
2022/04/21 04:40:55;;;;;;;15.07;6.97;;;;;;;4.90;73.11;99766.31;3127991;28;20458;-73
2022/04/21 04:42:28;;;;;;;14.57;8.48;;;;;;;4.97;73.16;99765.31;3129066;28;20053;-74
2022/04/21 04:44:00;;;;;;;13.15;8.00;;;;;;;5.03;73.08;99772.06;3130814;28;20053;-73
2022/04/21 04:47:21;;;;;;;14.80;9.00;;;;;;;5.12;72.92;99774.44;3126308;28;20135;-74
2022/04/21 04:48:52;;;;;;;15.73;9.20;;;;;;;5.14;72.76;99769.22;3127945;28;20052;-74
2022/04/21 04:50:24;;;;;;;13.07;7.70;;;;;;;5.20;72.64;99777.66;3127241;28;20056;-74
2022/04/21 04:51:56;;;;;;;15.02;7.32;;;;;;;5.24;72.24;99774.13;3124888;28;20473;-73
2022/04/21 04:53:28;;;;;;;11.70;7.10;;;;;;;5.25;72.12;99774.97;3124764;28;20061;-74
2022/04/21 04:54:59;;;;;;;15.68;7.18;;;;;;;5.31;71.76;99774.00;3130511;28;20506;-74
2022/04/21 04:56:32;;;;;;;15.32;7.53;;;;;;;5.21;71.59;99750.97;3129891;28;20087;-73
2022/04/21 04:58:03;;;;;;;10.80;6.65;;;;;;;5.36;71.29;99769.56;3132728;28;20497;-73
2022/04/21 04:59:37;;;;;;;11.75;7.53;;;;;;;5.38;71.14;99767.78;3123919;28;20575;-74
2022/04/21 05:01:09;;;;;;;11.85;7.07;;;;;;;5.39;70.72;99766.91;3126169;28;20053;-73
2022/04/21 05:02:41;;;;;;;12.88;6.93;;;;;;;5.41;70.50;99768.56;3126496;28;20091;-74
2022/04/21 05:04:14;;;;;;;17.23;8.07;;;;;;;5.42;70.24;99767.69;3133374;28;20049;-73
2022/04/21 05:05:45;;;;;;;10.85;6.13;;;;;;;5.42;69.83;99766.84;3123576;28;20064;-74
2022/04/21 05:07:18;;;;;;;12.23;7.85;;;;;;;5.45;69.84;99759.00;3131016;28;20430;-73
2022/04/21 05:08:49;;;;;;;14.27;7.80;;;;;;;5.51;69.79;99763.19;3129011;28;20135;-73
2022/04/21 05:10:23;;;;;;;13.20;7.57;;;;;;;5.49;69.55;99760.63;3133011;28;20529;-74
2022/04/21 05:11:57;;;;;;;15.98;7.63;;;;;;;5.47;69.11;99764.97;3131787;28;20070;-73
2022/04/21 05:13:30;;;;;;;16.55;7.90;;;;;;;5.43;69.11;99755.59;3126999;28;20399;-73
2022/04/21 05:15:04;;;;;;;14.27;8.07;;;;;;;5.50;69.03;99767.47;3132754;28;20486;-74
2022/04/21 05:16:36;;;;;;;14.63;8.18;;;;;;;5.51;69.01;99765.75;3132072;28;20084;-73
2022/04/21 05:18:09;;;;;;;12.05;7.43;;;;;;;5.51;69.03;99766.59;3132742;28;20053;-73
2022/04/21 05:19:42;;;;;;;12.70;7.95;;;;;;;5.53;69.07;99759.69;3127581;28;20130;-73
2022/04/21 05:21:13;;;;;;;14.83;8.60;;;;;;;5.63;69.16;99768.03;3133064;28;20437;-73
2022/04/21 05:22:47;;;;;;;14.68;7.80;;;;;;;5.64;69.00;99773.13;3136718;28;20306;-74
2022/04/21 05:24:20;;;;;;;17.15;8.20;;;;;;;5.65;68.72;99768.84;3131883;28;20053;-74
2022/04/21 05:25:52;;;;;;;15.18;8.75;;;;;;;5.69;68.62;99776.47;3133117;28;20048;-74
2022/04/21 05:27:25;;;;;;;15.55;8.80;;;;;;;5.69;68.37;99779.06;3126536;28;20098;-73
2022/04/21 05:28:58;;;;;;;16.20;9.50;;;;;;;5.71;68.58;99781.59;3132199;28;20090;-73
2022/04/21 05:32:27;;;;;;;13.57;8.90;;;;;;;5.83;68.37;99788.19;3132688;28;20045;-73
2022/04/21 05:33:59;;;;;;;13.00;8.45;;;;;;;5.86;68.39;99790.69;3126687;28;20049;-73
2022/04/21 05:35:32;;;;;;;14.93;9.50;;;;;;;5.98;68.19;99786.97;3132831;28;20056;-73
2022/04/21 05:37:05;;;;;;;15.50;9.13;;;;;;;6.18;67.78;99778.66;3132638;28;20139;-72
2022/04/21 05:38:37;;;;;;;12.97;8.80;;;;;;;6.36;67.50;99786.78;3132870;28;20053;-74
2022/04/21 05:40:10;;;;;;;14.77;8.38;;;;;;;6.47;67.21;99777.84;3132329;28;20344;-74
2022/04/21 05:41:43;;;;;;;12.17;7.70;;;;;;;6.55;67.33;99789.66;3132602;28;20049;-74
2022/04/21 05:43:18;;;;;;;14.30;8.93;;;;;;;6.61;67.13;99788.66;3138237;28;20497;-73
2022/04/21 05:44:52;;;;;;;12.45;7.97;;;;;;;6.67;67.05;99792.81;3132624;28;20406;-74
2022/04/21 05:46:25;;;;;;;;;;;;;;;6.77;66.91;99795.09;3137986;28;20445;-73
2022/04/21 05:47:57;;;;;;;13.15;7.55;;;;;;;6.81;66.73;99798.44;3126223;28;20787;-73
2022/04/21 05:49:30;;;;;;;12.73;8.15;;;;;;;6.83;66.73;99797.50;3126472;28;20106;-74
2022/04/21 05:51:03;;;;;;;12.73;7.57;;;;;;;6.87;66.61;99800.00;3127702;28;20494;-74
2022/04/21 05:52:41;;;;;;;14.10;7.57;;;;;;;6.83;66.59;99801.78;3128411;28;20437;-74
2022/04/21 05:54:14;;;;;;;14.05;8.25;;;;;;;6.88;66.49;99799.94;3125263;28;20045;-74
2022/04/21 05:55:46;;;;;;;16.80;8.15;;;;;;;6.79;66.63;99777.75;3127721;28;20051;-74
2022/04/21 05:57:18;;;;;;;15.90;8.40;;;;;;;6.99;66.88;99804.78;3132894;28;20052;-73
2022/04/21 05:58:50;;;;;;;11.85;7.38;;;;;;;7.05;66.72;99805.44;3126771;28;20132;-74
2022/04/21 06:00:21;;;;;;;17.52;8.60;;;;;;;7.15;66.48;99805.16;3123325;28;20052;-74
2022/04/21 06:01:54;;;;;;;13.63;8.15;;;;;;;7.16;66.10;99794.75;3134034;28;20453;-73
2022/04/21 06:03:26;;;;;;;11.23;7.75;;;;;;;7.17;65.99;99795.59;3133087;28;20056;-73
2022/04/21 06:04:59;;;;;;;12.80;7.80;;;;;;;7.21;65.97;99802.38;3132676;28;20048;-73
2022/04/21 06:06:31;;;;;;;15.50;7.85;;;;;;;7.26;66.08;99797.91;3131955;28;20585;-74
2022/04/21 06:08:03;;;;;;;14.85;8.75;;;;;;;7.20;65.81;99785.16;3132341;28;20052;-75
2022/04/21 06:09:35;;;;;;;11.75;7.82;;;;;;;7.32;65.78;99783.91;3132792;28;20048;-73
2022/04/21 06:11:07;;;;;;;16.00;7.80;;;;;;;7.35;65.54;99789.00;3132208;28;20041;-73
2022/04/21 06:12:39;;;;;;;15.57;7.78;;;;;;;7.42;65.43;99793.06;3132663;28;20068;-73
2022/04/21 06:14:11;;;;;;;10.40;6.90;;;;;;;7.48;65.19;99793.75;3134335;28;20049;-73
2022/04/21 06:15:43;;;;;;;9.70;6.65;;;;;;;7.36;64.63;99765.63;3132512;28;20045;-73
2022/04/21 06:17:17;;;;;;;9.50;6.27;;;;;;;7.50;64.49;99785.91;3136779;28;20045;-73
2022/04/21 06:18:50;;;;;;;12.95;6.97;;;;;;;7.56;64.19;99790.88;3132453;28;20311;-73
2022/04/21 06:20:21;;;;;;;9.13;6.32;;;;;;;7.61;64.13;99795.94;3138357;28;20070;-73
2022/04/21 06:21:53;;;;;;;14.20;6.95;;;;;;;7.59;63.54;99776.97;3144272;28;20053;-74
2022/04/21 06:23:25;;;;;;;8.80;5.68;;;;;;;7.55;62.93;99785.75;3144771;28;20064;-74
2022/04/21 06:24:57;;;;;;;10.25;6.40;;;;;;;7.53;63.29;99784.06;3140077;28;20355;-73
2022/04/21 06:26:29;;;;;;;9.95;6.22;;;;;;;7.66;63.58;99778.44;3144960;28;20287;-73
2022/04/21 06:28:01;;;;;;;9.90;5.93;;;;;;;7.64;63.13;99768.16;3145296;28;20048;-75
2022/04/21 06:29:32;;;;;;;10.35;6.38;;;;;;;7.68;63.11;99780.09;3141308;28;20052;-74
2022/04/21 06:31:05;;;;;;;8.98;5.93;;;;;;;7.79;63.29;99784.09;3144968;28;20048;-73
2022/04/21 06:32:38;;;;;;;12.32;6.22;;;;;;;7.80;63.06;99778.84;3144798;28;20056;-73
2022/04/21 06:34:10;;;;;;;8.63;5.88;;;;;;;7.83;62.80;99783.91;3143449;28;20048;-75
2022/04/21 06:35:42;;;;;;;13.00;7.50;;;;;;;7.90;62.98;99793.19;3144038;28;20421;-73
2022/04/21 06:37:13;;;;;;;14.02;6.32;;;;;;;7.84;62.73;99783.03;3142800;28;20044;-75
2022/04/21 06:38:45;;;;;;;11.07;7.03;;;;;;;7.90;62.58;99790.59;3146964;28;20045;-75
2022/04/21 06:40:17;;;;;;;14.52;8.85;;;;;;;8.03;62.80;99790.19;3147625;28;20045;-73
2022/04/21 06:41:49;;;;;;;9.18;6.53;;;;;;;8.00;62.34;99782.50;3145611;28;20047;-74
2022/04/21 06:48:50;;;;;;;11.70;5.88;;;;;;;7.88;62.12;99770.81;3148497;28;20037;-73
2022/04/21 06:50:22;;;;;;;14.70;7.38;;;;;;;7.93;62.13;99767.16;3145517;28;20052;-73
2022/04/21 06:51:54;;;;;;;9.32;6.80;;;;;;;7.95;62.21;99760.16;3147473;28;20049;-73
2022/04/21 06:53:26;;;;;;;12.13;6.63;;;;;;;7.99;62.12;99755.72;3147136;28;20107;-73
2022/04/21 06:54:57;;;;;;;14.75;7.63;;;;;;;8.03;62.27;99764.25;3147233;28;20060;-75
2022/04/21 06:56:29;;;;;;;13.20;7.75;;;;;;;8.05;62.16;99770.22;3142376;28;20049;-75
2022/04/21 06:58:02;;;;;;;13.80;7.40;;;;;;;8.01;62.01;99758.25;3147080;28;20110;-75
2022/04/21 06:59:33;;;;;;;12.32;6.68;;;;;;;8.03;61.69;99761.66;3147661;28;20113;-75
2022/04/21 07:01:05;;;;;;;9.88;6.53;;;;;;;8.09;61.78;99777.84;3146941;28;20139;-76
2022/04/21 07:02:38;;;;;;;14.23;7.07;;;;;;;8.09;61.77;99772.66;3144862;28;20059;-75
2022/04/21 07:04:11;;;;;;;13.05;7.10;;;;;;;8.17;61.67;99777.56;3146574;28;20143;-75
2022/04/21 07:05:43;;;;;;;12.23;6.65;;;;;;;8.21;61.87;99776.56;3147299;28;20054;-75
2022/04/21 07:07:15;;;;;;;12.00;7.60;;;;;;;8.31;61.87;99777.06;3144788;28;20105;-75
2022/04/21 07:08:48;;;;;;;15.57;6.95;;;;;;;8.34;61.62;99780.41;3147072;28;20055;-73
2022/04/21 07:10:20;;;;;;;;;;;;;;;8.38;61.40;99782.00;3147681;28;20063;-73
2022/04/21 07:11:52;;;;;;;10.95;6.70;;;;;;;8.38;61.59;99773.34;3147427;28;19920;-73
2022/04/21 07:13:24;;;;;;;12.48;7.53;;;;;;;8.46;61.14;99768.78;3147027;28;20048;-73
2022/04/21 07:14:57;;;;;;;13.95;7.82;;;;;;;8.49;61.62;99767.78;3147058;28;20114;-75
2022/04/21 07:16:29;;;;;;;12.98;7.97;;;;;;;8.57;61.60;99773.53;3137821;28;20052;-73
2022/04/21 07:18:01;;;;;;;19.55;9.93;;;;;;;8.60;61.69;99773.44;3147383;28;20441;-73
2022/04/21 07:19:34;;;;;;;13.43;7.55;;;;;;;8.66;61.35;99768.84;3145675;28;20542;-73
2022/04/21 07:21:09;;;;;;;16.38;7.88;;;;;;;8.68;61.32;99767.97;3146989;28;20487;-73
2022/04/21 07:22:41;;;;;;;21.20;7.97;;;;;;;8.69;61.35;99756.66;3146724;28;20049;-74
2022/04/21 07:24:13;;;;;;;12.95;7.70;;;;;;;8.84;61.49;99769.91;3142342;28;20055;-74
2022/04/21 07:25:45;;;;;;;12.55;7.97;;;;;;;8.74;61.60;99733.97;3147046;28;20766;-74
2022/04/21 07:27:16;;;;;;;12.48;6.63;;;;;;;8.98;61.08;99769.38;3145256;28;20056;-73
2022/04/21 07:28:48;;;;;;;14.00;6.75;;;;;;;9.03;60.26;99771.81;3146291;28;20053;-73
2022/04/21 07:30:20;;;;;;;10.88;6.13;;;;;;;9.07;60.16;99765.56;3142900;28;20055;-74
2022/04/21 07:31:53;;;;;;;14.45;6.80;;;;;;;9.13;60.37;99772.28;3147067;28;20059;-74
2022/04/21 07:33:25;;;;;;;8.95;6.50;;;;;;;9.13;59.85;99778.31;3146907;28;20485;-74
2022/04/21 07:34:58;;;;;;;11.10;5.75;;;;;;;9.06;59.27;99772.53;3147055;28;20064;-74
2022/04/21 07:36:30;;;;;;;14.57;6.35;;;;;;;9.04;59.04;99776.06;3144231;28;20499;-75
2022/04/21 07:38:02;;;;;;;7.68;5.72;;;;;;;9.00;58.75;99772.75;3147097;28;20070;-73
2022/04/21 07:39:34;;;;;;;11.13;6.60;;;;;;;8.99;58.92;99770.22;3146226;28;20389;-73
2022/04/21 07:41:05;;;;;;;10.02;6.30;;;;;;;9.06;59.07;99779.47;3145705;28;20134;-73
2022/04/21 07:42:37;;;;;;;10.40;6.57;;;;;;;9.12;59.33;99781.81;3146748;28;20056;-75
2022/04/21 07:44:09;;;;;;;10.82;5.93;;;;;;;9.20;59.20;99771.97;3145541;28;20052;-74
2022/04/21 07:45:41;;;;;;;10.38;6.80;;;;;;;9.30;59.09;99770.69;3146560;28;20134;-75